sensor_id;sensor_type;location;lat;lon;timestamp;pressure;altitude;pressure_sealevel;temperature
73685;BMP280;61985;51.070;14.064;2023-07-02T00:02:05;97677.56;;;17.61
73685;BMP280;61985;51.070;14.064;2023-07-02T00:04:30;97682.28;;;17.60
73685;BMP280;61985;51.070;14.064;2023-07-02T00:06:56;97681.31;;;17.69
73685;BMP280;61985;51.070;14.064;2023-07-02T00:09:21;97690.19;;;17.69
73685;BMP280;61985;51.070;14.064;2023-07-02T00:11:47;97686.75;;;17.69
73685;BMP280;61985;51.070;14.064;2023-07-02T00:14:13;97685.50;;;17.64
73685;BMP280;61985;51.070;14.064;2023-07-02T00:16:44;97690.69;;;17.62
73685;BMP280;61985;51.070;14.064;2023-07-02T00:19:16;97686.75;;;17.63
73685;BMP280;61985;51.070;14.064;2023-07-02T00:21:42;97676.63;;;17.58
73685;BMP280;61985;51.070;14.064;2023-07-02T00:24:08;97689.22;;;17.61
73685;BMP280;61985;51.070;14.064;2023-07-02T00:26:37;97681.53;;;17.65
73685;BMP280;61985;51.070;14.064;2023-07-02T00:29:03;97690.69;;;17.73
73685;BMP280;61985;51.070;14.064;2023-07-02T00:31:31;97693.44;;;17.73
73685;BMP280;61985;51.070;14.064;2023-07-02T00:33:56;97693.91;;;17.77
73685;BMP280;61985;51.070;14.064;2023-07-02T00:36:22;97680.28;;;17.77
73685;BMP280;61985;51.070;14.064;2023-07-02T00:38:49;97689.22;;;17.78
73685;BMP280;61985;51.070;14.064;2023-07-02T00:41:14;97690.16;;;17.81
73685;BMP280;61985;51.070;14.064;2023-07-02T00:43:40;97687.69;;;17.88
73685;BMP280;61985;51.070;14.064;2023-07-02T00:46:18;97679.50;;;17.88
73685;BMP280;61985;51.070;14.064;2023-07-02T00:48:51;97684.91;;;17.94
73685;BMP280;61985;51.070;14.064;2023-07-02T00:51:18;97680.72;;;17.93
73685;BMP280;61985;51.070;14.064;2023-07-02T00:53:45;97681.25;;;17.86
73685;BMP280;61985;51.070;14.064;2023-07-02T00:56:11;97682.25;;;17.83
73685;BMP280;61985;51.070;14.064;2023-07-02T00:58:43;97675.56;;;17.84
73685;BMP280;61985;51.070;14.064;2023-07-02T01:01:13;97683.94;;;17.91
73685;BMP280;61985;51.070;14.064;2023-07-02T01:03:49;97680.72;;;17.93
73685;BMP280;61985;51.070;14.064;2023-07-02T01:06:17;97678.75;;;17.88
73685;BMP280;61985;51.070;14.064;2023-07-02T01:08:45;97675.31;;;17.82
73685;BMP280;61985;51.070;14.064;2023-07-02T01:11:10;97672.59;;;17.82
73685;BMP280;61985;51.070;14.064;2023-07-02T01:13:36;97675.31;;;17.82
73685;BMP280;61985;51.070;14.064;2023-07-02T01:16:01;97675.56;;;17.84
73685;BMP280;61985;51.070;14.064;2023-07-02T01:18:27;97677.53;;;17.83
73685;BMP280;61985;51.070;14.064;2023-07-02T01:20:52;97678.31;;;17.78
73685;BMP280;61985;51.070;14.064;2023-07-02T01:25:55;97679.81;;;17.62
73685;BMP280;61985;51.070;14.064;2023-07-02T01:28:23;97678.09;;;17.59
73685;BMP280;61985;51.070;14.064;2023-07-02T01:30:49;97679.56;;;17.54
73685;BMP280;61985;51.070;14.064;2023-07-02T01:33:14;97679.34;;;17.58
73685;BMP280;61985;51.070;14.064;2023-07-02T01:35:39;97673.91;;;17.58
73685;BMP280;61985;51.070;14.064;2023-07-02T01:38:04;97669.66;;;17.57
73685;BMP280;61985;51.070;14.064;2023-07-02T01:40:30;97674.88;;;17.55
73685;BMP280;61985;51.070;14.064;2023-07-02T01:42:55;97680.06;;;17.53
73685;BMP280;61985;51.070;14.064;2023-07-02T01:45:21;97672.16;;;17.55
73685;BMP280;61985;51.070;14.064;2023-07-02T01:47:46;97668.16;;;17.56
73685;BMP280;61985;51.070;14.064;2023-07-02T01:50:11;97664.97;;;17.52
73685;BMP280;61985;51.070;14.064;2023-07-02T01:52:37;97670.69;;;17.54
73685;BMP280;61985;51.070;14.064;2023-07-02T01:55:02;97668.44;;;17.58
73685;BMP280;61985;51.070;14.064;2023-07-02T01:57:28;97663.94;;;17.61
73685;BMP280;61985;51.070;14.064;2023-07-02T01:59:55;97666.66;;;17.61
73685;BMP280;61985;51.070;14.064;2023-07-02T02:02:20;97669.19;;;17.59
73685;BMP280;61985;51.070;14.064;2023-07-02T02:04:46;97672.16;;;17.55
73685;BMP280;61985;51.070;14.064;2023-07-02T02:07:11;97677.09;;;17.57
73685;BMP280;61985;51.070;14.064;2023-07-02T02:09:37;97672.16;;;17.55
73685;BMP280;61985;51.070;14.064;2023-07-02T02:12:02;97682.06;;;17.52
73685;BMP280;61985;51.070;14.064;2023-07-02T02:14:27;97677.84;;;17.51
73685;BMP280;61985;51.070;14.064;2023-07-02T02:16:53;97675.59;;;17.50
73685;BMP280;61985;51.070;14.064;2023-07-02T02:19:18;97675.13;;;17.51
73685;BMP280;61985;51.070;14.064;2023-07-02T02:21:43;97674.16;;;17.43
73685;BMP280;61985;51.070;14.064;2023-07-02T02:24:09;97681.56;;;17.37
73685;BMP280;61985;51.070;14.064;2023-07-02T02:26:35;97676.88;;;17.38
73685;BMP280;61985;51.070;14.064;2023-07-02T02:29:01;97681.56;;;17.31
73685;BMP280;61985;51.070;14.064;2023-07-02T02:31:26;97683.81;;;17.27
73685;BMP280;61985;51.070;14.064;2023-07-02T02:33:53;97687.03;;;17.26
73685;BMP280;61985;51.070;14.064;2023-07-02T02:36:18;97691.72;;;17.20
73685;BMP280;61985;51.070;14.064;2023-07-02T02:38:44;97695.94;;;17.15
73685;BMP280;61985;51.070;14.064;2023-07-02T02:41:09;97688.25;;;17.13
73685;BMP280;61985;51.070;14.064;2023-07-02T02:43:34;97684.06;;;17.12
73685;BMP280;61985;51.070;14.064;2023-07-02T02:46:00;97684.78;;;17.13
73685;BMP280;61985;51.070;14.064;2023-07-02T02:48:25;97689.00;;;17.14
73685;BMP280;61985;51.070;14.064;2023-07-02T02:50:50;97691.22;;;17.10
73685;BMP280;61985;51.070;14.064;2023-07-02T02:53:16;97687.75;;;17.09
73685;BMP280;61985;51.070;14.064;2023-07-02T02:55:41;97684.31;;;16.98
73685;BMP280;61985;51.070;14.064;2023-07-02T02:58:06;97683.03;;;16.99
73685;BMP280;61985;51.070;14.064;2023-07-02T03:00:32;97686.75;;;16.96
73685;BMP280;61985;51.070;14.064;2023-07-02T03:02:58;97689.22;;;16.93
73685;BMP280;61985;51.070;14.064;2023-07-02T03:05:24;97699.16;;;16.97
73685;BMP280;61985;51.070;14.064;2023-07-02T03:07:50;97696.16;;;17.00
73685;BMP280;61985;51.070;14.064;2023-07-02T03:10:16;97686.50;;;17.05
73685;BMP280;61985;51.070;14.064;2023-07-02T03:12:41;97694.44;;;17.08
73685;BMP280;61985;51.070;14.064;2023-07-02T03:15:07;97697.69;;;17.07
73685;BMP280;61985;51.070;14.064;2023-07-02T03:17:33;97695.44;;;17.05
73685;BMP280;61985;51.070;14.064;2023-07-02T03:19:58;97701.63;;;17.11
73685;BMP280;61985;51.070;14.064;2023-07-02T03:22:24;97693.94;;;17.10
73685;BMP280;61985;51.070;14.064;2023-07-02T03:24:49;97692.97;;;17.13
73685;BMP280;61985;51.070;14.064;2023-07-02T03:27:14;97697.91;;;17.09
73685;BMP280;61985;51.070;14.064;2023-07-02T03:29:40;97696.94;;;17.12
73685;BMP280;61985;51.070;14.064;2023-07-02T03:32:05;97699.16;;;17.08
73685;BMP280;61985;51.070;14.064;2023-07-02T03:34:31;97695.91;;;17.09
73685;BMP280;61985;51.070;14.064;2023-07-02T03:36:56;97693.44;;;17.11
73685;BMP280;61985;51.070;14.064;2023-07-02T03:39:21;97697.88;;;17.14
73685;BMP280;61985;51.070;14.064;2023-07-02T03:41:47;97695.69;;;17.13
73685;BMP280;61985;51.070;14.064;2023-07-02T03:44:12;97699.13;;;17.19
73685;BMP280;61985;51.070;14.064;2023-07-02T03:46:37;97697.69;;;17.18
73685;BMP280;61985;51.070;14.064;2023-07-02T03:49:03;97694.44;;;17.20
73685;BMP280;61985;51.070;14.064;2023-07-02T03:51:32;97689.75;;;17.20
73685;BMP280;61985;51.070;14.064;2023-07-02T03:54:00;97698.16;;;17.22
73685;BMP280;61985;51.070;14.064;2023-07-02T03:56:26;97704.56;;;17.19
73685;BMP280;61985;51.070;14.064;2023-07-02T03:58:52;97712.25;;;17.21
73685;BMP280;61985;51.070;14.064;2023-07-02T04:01:17;97711.00;;;17.16
73685;BMP280;61985;51.070;14.064;2023-07-02T04:03:52;97712.97;;;17.10
73685;BMP280;61985;51.070;14.064;2023-07-02T04:06:18;97713.50;;;17.08
73685;BMP280;61985;51.070;14.064;2023-07-02T04:08:44;97720.66;;;17.11
73685;BMP280;61985;51.070;14.064;2023-07-02T04:11:10;97718.19;;;17.13
73685;BMP280;61985;51.070;14.064;2023-07-02T04:13:36;97715.97;;;17.06
73685;BMP280;61985;51.070;14.064;2023-07-02T04:16:02;97730.81;;;17.11
73685;BMP280;61985;51.070;14.064;2023-07-02T04:18:27;97728.84;;;17.06
73685;BMP280;61985;51.070;14.064;2023-07-02T04:20:54;97734.03;;;17.04
73685;BMP280;61985;51.070;14.064;2023-07-02T04:23:19;97734.75;;;16.99
73685;BMP280;61985;51.070;14.064;2023-07-02T04:25:45;97731.78;;;16.91
73685;BMP280;61985;51.070;14.064;2023-07-02T04:28:10;97740.19;;;16.87
73685;BMP280;61985;51.070;14.064;2023-07-02T04:30:35;97745.09;;;16.83
73685;BMP280;61985;51.070;14.064;2023-07-02T04:33:00;97756.22;;;16.80
73685;BMP280;61985;51.070;14.064;2023-07-02T04:35:26;97760.19;;;16.73
73685;BMP280;61985;51.070;14.064;2023-07-02T04:37:51;97757.94;;;16.66
73685;BMP280;61985;51.070;14.064;2023-07-02T04:40:16;97772.75;;;16.65
73685;BMP280;61985;51.070;14.064;2023-07-02T04:42:42;97771.72;;;16.57
73685;BMP280;61985;51.070;14.064;2023-07-02T04:45:12;97779.91;;;16.68
73685;BMP280;61985;51.070;14.064;2023-07-02T04:47:41;97780.19;;;16.70
73685;BMP280;61985;51.070;14.064;2023-07-02T04:50:07;97782.19;;;16.75
73685;BMP280;61985;51.070;14.064;2023-07-02T04:52:32;97779.69;;;16.66
73685;BMP280;61985;51.070;14.064;2023-07-02T04:54:57;97787.28;;;16.56
73685;BMP280;61985;51.070;14.064;2023-07-02T04:57:32;97792.53;;;16.60
73685;BMP280;61985;51.070;14.064;2023-07-02T04:59:57;97800.34;;;16.46
73685;BMP280;61985;51.070;14.064;2023-07-02T05:02:23;97804.81;;;16.49
73685;BMP280;61985;51.070;14.064;2023-07-02T05:04:48;97807.06;;;16.57
73685;BMP280;61985;51.070;14.064;2023-07-02T05:07:13;97802.88;;;16.50
73685;BMP280;61985;51.070;14.064;2023-07-02T05:09:39;97796.16;;;16.45
73685;BMP280;61985;51.070;14.064;2023-07-02T05:12:04;97801.88;;;16.53
73685;BMP280;61985;51.070;14.064;2023-07-02T05:14:30;97807.31;;;16.53
73685;BMP280;61985;51.070;14.064;2023-07-02T05:16:55;97805.59;;;16.61
73685;BMP280;61985;51.070;14.064;2023-07-02T05:19:20;97806.06;;;16.48
73685;BMP280;61985;51.070;14.064;2023-07-02T05:21:46;97808.78;;;16.48
73685;BMP280;61985;51.070;14.064;2023-07-02T05:24:11;97810.25;;;16.44
73685;BMP280;61985;51.070;14.064;2023-07-02T05:26:36;97815.19;;;16.45
73685;BMP280;61985;51.070;14.064;2023-07-02T05:29:02;97816.63;;;16.41
73685;BMP280;61985;51.070;14.064;2023-07-02T05:31:27;97813.94;;;16.46
73685;BMP280;61985;51.070;14.064;2023-07-02T05:33:53;97806.06;;;16.54
73685;BMP280;61985;51.070;14.064;2023-07-02T05:36:20;97811.22;;;16.46
73685;BMP280;61985;51.070;14.064;2023-07-02T05:38:45;97808.03;;;16.48
73685;BMP280;61985;51.070;14.064;2023-07-02T05:41:11;97805.88;;;16.63
73685;BMP280;61985;51.070;14.064;2023-07-02T05:43:36;97812.78;;;16.59
73685;BMP280;61985;51.070;14.064;2023-07-02T05:46:01;97821.47;;;16.68
73685;BMP280;61985;51.070;14.064;2023-07-02T05:48:27;97820.00;;;16.73
73685;BMP280;61985;51.070;14.064;2023-07-02T05:50:53;97816.34;;;16.76
73685;BMP280;61985;51.070;14.064;2023-07-02T05:53:18;97821.28;;;16.83
73685;BMP280;61985;51.070;14.064;2023-07-02T05:55:44;97825.97;;;16.83
73685;BMP280;61985;51.070;14.064;2023-07-02T05:58:10;97831.41;;;16.83
73685;BMP280;61985;51.070;14.064;2023-07-02T06:00:35;97826.75;;;16.89
73685;BMP280;61985;51.070;14.064;2023-07-02T06:03:01;97834.22;;;17.00
73685;BMP280;61985;51.070;14.064;2023-07-02T06:05:26;97838.44;;;17.06
73685;BMP280;61985;51.070;14.064;2023-07-02T06:07:51;97841.38;;;16.97
73685;BMP280;61985;51.070;14.064;2023-07-02T06:10:17;97847.38;;;17.07
73685;BMP280;61985;51.070;14.064;2023-07-02T06:12:42;97840.91;;;17.10
73685;BMP280;61985;51.070;14.064;2023-07-02T06:15:09;97851.34;;;17.17
73685;BMP280;61985;51.070;14.064;2023-07-02T06:17:34;97845.91;;;17.23
73685;BMP280;61985;51.070;14.064;2023-07-02T06:20:01;97850.13;;;17.29
73685;BMP280;61985;51.070;14.064;2023-07-02T06:22:26;97847.66;;;17.37
73685;BMP280;61985;51.070;14.064;2023-07-02T06:24:52;97849.66;;;17.42
73685;BMP280;61985;51.070;14.064;2023-07-02T06:27:17;97850.16;;;17.46
73685;BMP280;61985;51.070;14.064;2023-07-02T06:29:42;97849.16;;;17.49
73685;BMP280;61985;51.070;14.064;2023-07-02T06:32:08;97847.66;;;17.37
73685;BMP280;61985;51.070;14.064;2023-07-02T06:34:33;97852.91;;;17.52
73685;BMP280;61985;51.070;14.064;2023-07-02T06:36:58;97844.22;;;17.65
73685;BMP280;61985;51.070;14.064;2023-07-02T06:39:24;97853.91;;;17.71
73685;BMP280;61985;51.070;14.064;2023-07-02T06:41:49;97860.34;;;17.80
73685;BMP280;61985;51.070;14.064;2023-07-02T06:44:14;97854.63;;;17.94
73685;BMP280;61985;51.070;14.064;2023-07-02T06:46:40;97856.16;;;17.84
73685;BMP280;61985;51.070;14.064;2023-07-02T06:49:05;97852.44;;;17.87
73685;BMP280;61985;51.070;14.064;2023-07-02T06:51:31;97859.34;;;17.88
73685;BMP280;61985;51.070;14.064;2023-07-02T06:53:58;97863.31;;;17.93
73685;BMP280;61985;51.070;14.064;2023-07-02T06:56:24;97855.88;;;17.99
73685;BMP280;61985;51.070;14.064;2023-07-02T06:58:49;97864.31;;;18.01
73685;BMP280;61985;51.070;14.064;2023-07-02T07:01:14;97863.06;;;17.91
73685;BMP280;61985;51.070;14.064;2023-07-02T07:03:40;97864.06;;;17.88
73685;BMP280;61985;51.070;14.064;2023-07-02T07:06:05;97865.31;;;18.04
73685;BMP280;61985;51.070;14.064;2023-07-02T07:08:30;97855.09;;;18.27
73685;BMP280;61985;51.070;14.064;2023-07-02T07:10:56;97860.59;;;18.21
73685;BMP280;61985;51.070;14.064;2023-07-02T07:13:21;97866.78;;;18.27
73685;BMP280;61985;51.070;14.064;2023-07-02T07:15:47;97860.03;;;18.28
73685;BMP280;61985;51.070;14.064;2023-07-02T07:18:12;97858.59;;;18.16
73685;BMP280;61985;51.070;14.064;2023-07-02T07:20:39;97860.84;;;18.23
73685;BMP280;61985;51.070;14.064;2023-07-02T07:23:07;97856.09;;;18.35
73685;BMP280;61985;51.070;14.064;2023-07-02T07:25:34;97859.28;;;18.45
73685;BMP280;61985;51.070;14.064;2023-07-02T07:27:59;97861.53;;;18.46
73685;BMP280;61985;51.070;14.064;2023-07-02T07:30:25;97843.16;;;18.41
73685;BMP280;61985;51.070;14.064;2023-07-02T07:32:51;97855.53;;;18.53
73685;BMP280;61985;51.070;14.064;2023-07-02T07:35:17;97853.53;;;18.59
73685;BMP280;61985;51.070;14.064;2023-07-02T07:37:43;97859.75;;;18.60
73685;BMP280;61985;51.070;14.064;2023-07-02T07:40:08;97858.69;;;18.74
73685;BMP280;61985;51.070;14.064;2023-07-02T07:42:34;97852.81;;;18.48
73685;BMP280;61985;51.070;14.064;2023-07-02T07:44:59;97857.28;;;18.45
73685;BMP280;61985;51.070;14.064;2023-07-02T07:47:24;97850.28;;;18.67
73685;BMP280;61985;51.070;14.064;2023-07-02T07:49:50;97854.94;;;18.83
73685;BMP280;61985;51.070;14.064;2023-07-02T07:52:15;97854.22;;;18.71
73685;BMP280;61985;51.070;14.064;2023-07-02T07:54:40;97862.66;;;18.73
73685;BMP280;61985;51.070;14.064;2023-07-02T07:57:06;97864.38;;;18.76
73685;BMP280;61985;51.070;14.064;2023-07-02T07:59:31;97867.84;;;18.77
73685;BMP280;61985;51.070;14.064;2023-07-02T08:01:57;97858.25;;;18.59
73685;BMP280;61985;51.070;14.064;2023-07-02T08:04:22;97856.78;;;18.52
73685;BMP280;61985;51.070;14.064;2023-07-02T08:06:47;97861.50;;;18.52
73685;BMP280;61985;51.070;14.064;2023-07-02T08:09:12;97847.47;;;18.89
73685;BMP280;61985;51.070;14.064;2023-07-02T08:11:38;97856.78;;;19.11
73685;BMP280;61985;51.070;14.064;2023-07-02T08:14:03;97858.13;;;19.34
73685;BMP280;61985;51.070;14.064;2023-07-02T08:16:28;97854.50;;;19.20
73685;BMP280;61985;51.070;14.064;2023-07-02T08:18:54;97854.78;;;19.17
73685;BMP280;61985;51.070;14.064;2023-07-02T08:21:19;97858.66;;;19.27
73685;BMP280;61985;51.070;14.064;2023-07-02T08:23:44;97858.00;;;19.15
73685;BMP280;61985;51.070;14.064;2023-07-02T08:26:10;97858.13;;;19.34
73685;BMP280;61985;51.070;14.064;2023-07-02T08:28:39;97855.78;;;19.50
73685;BMP280;61985;51.070;14.064;2023-07-02T08:31:05;97857.13;;;19.37
73685;BMP280;61985;51.070;14.064;2023-07-02T08:33:31;97864.09;;;19.38
73685;BMP280;61985;51.070;14.064;2023-07-02T08:35:56;97852.22;;;19.60
73685;BMP280;61985;51.070;14.064;2023-07-02T08:38:22;97847.22;;;19.95
73685;BMP280;61985;51.070;14.064;2023-07-02T08:40:49;97861.44;;;19.63
73685;BMP280;61985;51.070;14.064;2023-07-02T08:43:14;97868.28;;;19.39
73685;BMP280;61985;51.070;14.064;2023-07-02T08:45:41;97863.47;;;19.57
73685;BMP280;61985;51.070;14.064;2023-07-02T08:48:07;97865.00;;;20.07
73685;BMP280;61985;51.070;14.064;2023-07-02T08:50:33;97868.63;;;20.40
73685;BMP280;61985;51.070;14.064;2023-07-02T08:52:58;97866.88;;;20.42
73685;BMP280;61985;51.070;14.064;2023-07-02T08:55:23;97874.34;;;20.17
73685;BMP280;61985;51.070;14.064;2023-07-02T08:57:53;97877.34;;;20.38
73685;BMP280;61985;51.070;14.064;2023-07-02T09:00:19;97877.28;;;20.25
73685;BMP280;61985;51.070;14.064;2023-07-02T09:02:46;97869.50;;;20.54
73685;BMP280;61985;51.070;14.064;2023-07-02T09:05:12;97871.78;;;20.68
73685;BMP280;61985;51.070;14.064;2023-07-02T09:07:47;97877.75;;;20.91
73685;BMP280;61985;51.070;14.064;2023-07-02T09:10:33;97874.00;;;20.51
73685;BMP280;61985;51.070;14.064;2023-07-02T09:13:07;97875.66;;;20.35
73685;BMP280;61985;51.070;14.064;2023-07-02T09:15:40;97883.06;;;20.84
73685;BMP280;61985;51.070;14.064;2023-07-02T09:18:22;97879.53;;;20.89
73685;BMP280;61985;51.070;14.064;2023-07-02T09:20:52;97881.44;;;20.75
73685;BMP280;61985;51.070;14.064;2023-07-02T09:23:19;97879.75;;;20.91
73685;BMP280;61985;51.070;14.064;2023-07-02T09:25:45;97877.50;;;20.89
73685;BMP280;61985;51.070;14.064;2023-07-02T09:28:18;97874.00;;;20.51
73685;BMP280;61985;51.070;14.064;2023-07-02T09:30:53;97879.53;;;20.89
73685;BMP280;61985;51.070;14.064;2023-07-02T09:33:20;97879.88;;;20.80
73685;BMP280;61985;51.070;14.064;2023-07-02T09:35:45;97884.47;;;20.71
73685;BMP280;61985;51.070;14.064;2023-07-02T09:38:12;97886.63;;;20.79
73685;BMP280;61985;51.070;14.064;2023-07-02T09:40:44;97889.28;;;20.84
73685;BMP280;61985;51.070;14.064;2023-07-02T09:43:10;97883.28;;;20.86
73685;BMP280;61985;51.070;14.064;2023-07-02T09:45:36;97878.16;;;21.14
73685;BMP280;61985;51.070;14.064;2023-07-02T09:48:02;97896.63;;;21.46
73685;BMP280;61985;51.070;14.064;2023-07-02T09:50:28;97891.50;;;21.24
73685;BMP280;61985;51.070;14.064;2023-07-02T09:52:54;97892.50;;;21.40
73685;BMP280;61985;51.070;14.064;2023-07-02T09:55:21;97890.97;;;21.06
73685;BMP280;61985;51.070;14.064;2023-07-02T09:57:47;97893.91;;;21.46
73685;BMP280;61985;51.070;14.064;2023-07-02T10:00:13;97889.47;;;21.43
73685;BMP280;61985;51.070;14.064;2023-07-02T10:02:39;97892.78;;;21.55
73685;BMP280;61985;51.070;14.064;2023-07-02T10:05:05;97884.59;;;21.68
73685;BMP280;61985;51.070;14.064;2023-07-02T10:07:31;97884.25;;;21.58
73685;BMP280;61985;51.070;14.064;2023-07-02T10:10:00;97888.31;;;21.84
73685;BMP280;61985;51.070;14.064;2023-07-02T10:12:29;97895.69;;;21.89
73685;BMP280;61985;51.070;14.064;2023-07-02T10:14:56;97888.31;;;21.84
73685;BMP280;61985;51.070;14.064;2023-07-02T10:17:32;97899.25;;;21.84
73685;BMP280;61985;51.070;14.064;2023-07-02T10:20:00;97899.63;;;22.07
73685;BMP280;61985;51.070;14.064;2023-07-02T10:22:26;97892.59;;;22.12
73685;BMP280;61985;51.070;14.064;2023-07-02T10:24:56;97886.03;;;22.15
73685;BMP280;61985;51.070;14.064;2023-07-02T10:27:36;97885.81;;;22.39
73685;BMP280;61985;51.070;14.064;2023-07-02T10:30:03;97885.38;;;22.49
73685;BMP280;61985;51.070;14.064;2023-07-02T10:32:29;97896.88;;;22.74
73685;BMP280;61985;51.070;14.064;2023-07-02T10:34:54;97898.19;;;22.94
73685;BMP280;61985;51.070;14.064;2023-07-02T10:37:20;97879.38;;;22.98
73685;BMP280;61985;51.070;14.064;2023-07-02T10:39:46;97893.34;;;22.86
73685;BMP280;61985;51.070;14.064;2023-07-02T10:42:11;97890.03;;;22.67
73685;BMP280;61985;51.070;14.064;2023-07-02T10:44:52;97900.13;;;22.85
73685;BMP280;61985;51.070;14.064;2023-07-02T10:47:19;97882.84;;;22.51
73685;BMP280;61985;51.070;14.064;2023-07-02T10:49:44;97889.28;;;22.53
73685;BMP280;61985;51.070;14.064;2023-07-02T10:52:10;97886.00;;;23.02
73685;BMP280;61985;51.070;14.064;2023-07-02T10:54:46;97883.88;;;22.74
73685;BMP280;61985;51.070;14.064;2023-07-02T10:57:18;97887.25;;;23.15
73685;BMP280;61985;51.070;14.064;2023-07-02T10:59:48;97888.13;;;23.51
73685;BMP280;61985;51.070;14.064;2023-07-02T11:02:14;97884.22;;;23.68
73685;BMP280;61985;51.070;14.064;2023-07-02T11:04:39;97894.09;;;23.42
73685;BMP280;61985;51.070;14.064;2023-07-02T11:07:05;97891.53;;;23.23
73685;BMP280;61985;51.070;14.064;2023-07-02T11:09:30;97889.47;;;23.87
73685;BMP280;61985;51.070;14.064;2023-07-02T11:11:57;97886.38;;;24.55
73685;BMP280;61985;51.070;14.064;2023-07-02T11:14:31;97881.34;;;24.02
73685;BMP280;61985;51.070;14.064;2023-07-02T11:16:58;97888.22;;;23.88
73685;BMP280;61985;51.070;14.064;2023-07-02T11:19:23;97873.78;;;23.74
73685;BMP280;61985;51.070;14.064;2023-07-02T11:21:56;97885.94;;;24.07
73685;BMP280;61985;51.070;14.064;2023-07-02T11:24:36;97881.63;;;24.63
73685;BMP280;61985;51.070;14.064;2023-07-02T11:27:05;97868.59;;;24.20
73685;BMP280;61985;51.070;14.064;2023-07-02T11:29:34;97890.34;;;24.03
73685;BMP280;61985;51.070;14.064;2023-07-02T11:34:31;97885.53;;;23.74
73685;BMP280;61985;51.070;14.064;2023-07-02T11:36:56;97889.44;;;24.08
73685;BMP280;61985;51.070;14.064;2023-07-02T11:39:21;97896.03;;;24.41
73685;BMP280;61985;51.070;14.064;2023-07-02T11:41:48;97883.19;;;24.07
73685;BMP280;61985;51.070;14.064;2023-07-02T11:44:14;97892.91;;;24.37
73685;BMP280;61985;51.070;14.064;2023-07-02T11:46:40;97882.25;;;24.85
73685;BMP280;61985;51.070;14.064;2023-07-02T11:49:05;97873.09;;;25.28
73685;BMP280;61985;51.070;14.064;2023-07-02T11:51:35;97873.97;;;25.92
73685;BMP280;61985;51.070;14.064;2023-07-02T11:54:00;97871.09;;;25.60
73685;BMP280;61985;51.070;14.064;2023-07-02T11:56:25;97878.81;;;25.15
73685;BMP280;61985;51.070;14.064;2023-07-02T11:58:50;97872.56;;;25.38
73685;BMP280;61985;51.070;14.064;2023-07-02T12:01:16;97876.75;;;25.85
73685;BMP280;61985;51.070;14.064;2023-07-02T12:03:41;97887.28;;;25.56
73685;BMP280;61985;51.070;14.064;2023-07-02T12:06:06;97886.66;;;25.88
73685;BMP280;61985;51.070;14.064;2023-07-02T12:08:32;97885.69;;;26.08
73685;BMP280;61985;51.070;14.064;2023-07-02T12:10:57;97886.88;;;25.82
73685;BMP280;61985;51.070;14.064;2023-07-02T12:13:22;97878.59;;;24.90
73685;BMP280;61985;51.070;14.064;2023-07-02T12:15:48;97900.09;;;24.11
73685;BMP280;61985;51.070;14.064;2023-07-02T12:18:14;97893.59;;;23.72
73685;BMP280;61985;51.070;14.064;2023-07-02T12:20:40;97902.00;;;23.46
73685;BMP280;61985;51.070;14.064;2023-07-02T12:23:05;97903.22;;;23.58
73685;BMP280;61985;51.070;14.064;2023-07-02T12:25:31;97896.38;;;24.01
73685;BMP280;61985;51.070;14.064;2023-07-02T12:27:56;97901.53;;;24.85
73685;BMP280;61985;51.070;14.064;2023-07-02T12:30:22;97908.22;;;25.51
73685;BMP280;61985;51.070;14.064;2023-07-02T12:32:47;97893.06;;;26.13
73685;BMP280;61985;51.070;14.064;2023-07-02T12:35:12;97888.25;;;26.14
73685;BMP280;61985;51.070;14.064;2023-07-02T12:37:45;97893.91;;;26.31
73685;BMP280;61985;51.070;14.064;2023-07-02T12:40:11;97908.16;;;26.12
73685;BMP280;61985;51.070;14.064;2023-07-02T12:42:37;97900.31;;;25.86
73685;BMP280;61985;51.070;14.064;2023-07-02T12:45:03;97906.72;;;25.96
73685;BMP280;61985;51.070;14.064;2023-07-02T12:47:29;97897.56;;;25.17
73685;BMP280;61985;51.070;14.064;2023-07-02T12:49:54;97904.34;;;24.12
73685;BMP280;61985;51.070;14.064;2023-07-02T12:52:19;97900.94;;;23.77
73685;BMP280;61985;51.070;14.064;2023-07-02T12:54:45;97910.78;;;23.65
73685;BMP280;61985;51.070;14.064;2023-07-02T12:57:10;97914.19;;;23.37
73685;BMP280;61985;51.070;14.064;2023-07-02T12:59:35;97909.66;;;23.40
73685;BMP280;61985;51.070;14.064;2023-07-02T13:02:01;97908.75;;;23.45
73685;BMP280;61985;51.070;14.064;2023-07-02T13:04:26;97912.84;;;23.30
73685;BMP280;61985;51.070;14.064;2023-07-02T13:06:52;97906.97;;;23.97
73685;BMP280;61985;51.070;14.064;2023-07-02T13:09:17;97917.28;;;23.33
73685;BMP280;61985;51.070;14.064;2023-07-02T13:11:42;97917.94;;;22.92
73685;BMP280;61985;51.070;14.064;2023-07-02T13:14:08;97915.97;;;22.79
73685;BMP280;61985;51.070;14.064;2023-07-02T13:16:33;97912.78;;;23.86
73685;BMP280;61985;51.070;14.064;2023-07-02T13:18:58;97915.59;;;24.66
73685;BMP280;61985;51.070;14.064;2023-07-02T13:21:26;97908.38;;;25.15
73685;BMP280;61985;51.070;14.064;2023-07-02T13:26:28;97907.16;;;26.33
73685;BMP280;61985;51.070;14.064;2023-07-02T13:28:53;97915.13;;;26.21
73685;BMP280;61985;51.070;14.064;2023-07-02T13:31:19;97902.88;;;25.76
73685;BMP280;61985;51.070;14.064;2023-07-02T13:33:44;97915.66;;;24.81
73685;BMP280;61985;51.070;14.064;2023-07-02T13:36:11;97932.22;;;24.45
73685;BMP280;61985;51.070;14.064;2023-07-02T13:38:37;97930.63;;;23.71
73685;BMP280;61985;51.070;14.064;2023-07-02T13:41:02;97942.44;;;23.80
73685;BMP280;61985;51.070;14.064;2023-07-02T13:43:27;97936.66;;;23.91
73685;BMP280;61985;51.070;14.064;2023-07-02T13:45:53;97943.91;;;23.81
73685;BMP280;61985;51.070;14.064;2023-07-02T13:48:18;97940.88;;;23.71
73685;BMP280;61985;51.070;14.064;2023-07-02T13:50:43;97942.56;;;24.24
73685;BMP280;61985;51.070;14.064;2023-07-02T13:53:09;97941.41;;;25.07
73685;BMP280;61985;51.070;14.064;2023-07-02T13:55:34;97946.47;;;25.85
73685;BMP280;61985;51.070;14.064;2023-07-02T13:57:59;97934.69;;;26.00
73685;BMP280;61985;51.070;14.064;2023-07-02T14:00:26;97947.03;;;25.76